Buoy 46928

sailwx.info

Track history (hours):
 
Tides and Currents Weather Stations Pressure Air Temp Water Temp Dewpoint Dewpoint Depression Visibility Wind Speed Wind Dir Waves Ship Positions

Drifting buoy 46928

Last reported at 2014-Oct-31 15:30 UTC. Time now 2014-Oct-31 17:09 UTC.
Position N 45°23' W 147°41'.

Barometer 1017.1 mb
Water temperature 12.8 ° C

Date/timePositionNaut miles runAvg speedWind from/ knotsBaromVisibWave heightAir tempDewpointWater temp
2014-Oct-31 15:30N 45°23' W 147°41'1 0.7 1017.1 12.8
2014-Oct-31 13:30N 45°23' W 147°43'1 0.5 1016.7 12.7
2014-Oct-31 11:30N 45°24' W 147°44'2 0.5 1016.7 12.7
2014-Oct-31 07:30N 45°23' W 147°47'1 0.6 1017.5 12.7
2014-Oct-31 05:30N 45°22' W 147°47'1 1.1 1017.0 12.6
2014-Oct-31 04:30N 45°20' W 147°47'1 0.7 1016.6 12.6
2014-Oct-31 03:30N 45°21' W 147°47'0 0.0 1016.3 12.6
2014-Oct-31 02:30N 45°21' W 147°47'1 1.3 1015.5 12.6
2014-Oct-31 01:30N 45°21' W 147°46'1 0.8 1015.5 12.6
2014-Oct-31 00:30N 45°20' W 147°47'0 0.3 1015.3 12.6
2014-Oct-30 23:30N 45°20' W 147°47'3 1.1 1015.5 12.6
2014-Oct-30 20:30N 45°23' W 147°49'2 1.7 1016.0 12.7
2014-Oct-30 19:30N 45°25' W 147°51'0 0.0 1016.0 12.7
2014-Oct-30 17:30N 45°25' W 147°51'1 0.4 1014.6 12.8
2014-Oct-30 14:30N 45°23' W 147°51'1 1.2 1013.1 12.9
2014-Oct-30 13:30N 45°24' W 147°52'3 0.8 1012.8 12.9
2014-Oct-30 10:30N 45°25' W 147°49'3 1.0 1012.3 13.0
2014-Oct-30 07:30N 45°27' W 147°51'1 0.3 1011.3 12.9
2014-Oct-30 05:30N 45°28' W 147°51'0 0.2 1010.0 12.6
2014-Oct-30 04:30N 45°28' W 147°52'2 2.2 1009.8 12.6
2014-Oct-30 03:30N 45°30' W 147°53'1 0.4 1009.2 12.5
2014-Oct-30 00:30N 45°31' W 147°54'0 0.2 1008.0 12.5
2014-Oct-29 23:30N 45°31' W 147°54'1 0.4 1007.9 12.5
2014-Oct-29 21:30N 45°31' W 147°54'1 0.4 1009.3 12.4
2014-Oct-29 19:30N 45°31' W 147°55'2 0.9 1010.0 12.5
2014-Oct-29 17:30N 45°31' W 147°57'0 0.4 1009.6 12.5
2014-Oct-29 16:30N 45°31' W 147°57'1 0.5 1009.0 12.5
2014-Oct-29 14:30N 45°32' W 147°56'5 1.8 1009.0 12.5
2014-Oct-29 11:30N 45°34' W 148°03'0 0.0 1009.5 12.5
2014-Oct-29 08:30N 45°34' W 148°03'1 0.3 1010.1 12.6
2014-Oct-29 05:30N 45°35' W 148°04'2 0.7 1011.3 12.6
2014-Oct-29 02:30N 45°32' W 148°05'1 0.6 1011.7 12.6
2014-Oct-29 01:30N 45°33' W 148°04'1 0.7 1011.6 12.5
2014-Oct-29 00:30N 45°32' W 148°05'0 0.2 1011.8 12.5
2014-Oct-28 22:30N 45°32' W 148°04'0 0.3 1012.7 12.5
2014-Oct-28 21:30N 45°32' W 148°05'2 1.7 1013.3 12.4
2014-Oct-28 20:30N 45°33' W 148°03'4 2.2 1013.6 12.4
2014-Oct-28 18:30N 45°36' W 148°07'0 0.1 1013.3 12.3
2014-Oct-28 16:30N 45°36' W 148°08'2 1.0 1012.7 12.3
2014-Oct-28 14:30N 45°36' W 148°10'1 0.5 1012.9 12.3
2014-Oct-28 12:30N 45°36' W 148°12'1 0.4 1012.9 12.3
2014-Oct-28 10:30N 45°35' W 148°11'0 0.0 1012.8 12.3
2014-Oct-28 08:30N 45°35' W 148°11'1 0.4 1012.7 12.3
2014-Oct-28 06:30N 45°36' W 148°11'2 0.5 1012.3 12.3
2014-Oct-28 02:30N 45°38' W 148°11'1 0.6 1009.4 12.3
2014-Oct-28 01:30N 45°38' W 148°11'1 0.5 1008.8 12.3
2014-Oct-28 00:30N 45°39' W 148°11'0 0.3 1008.0 12.3
2014-Oct-27 23:30N 45°39' W 148°12'1 0.8 1007.4 12.3
2014-Oct-27 22:30N 45°40' W 148°13'1 0.1 1006.6 12.3
2014-Oct-27 16:30N 45°40' W 148°11'0 0.3 999.7 12.3
2014-Oct-27 15:30N 45°40' W 148°12'2 1.8 998.2 12.3
2014-Oct-27 14:30N 45°41' W 148°13'0 0.1 997.1 12.3
2014-Oct-27 12:30N 45°41' W 148°12'0 0.0 995.7 12.3
2014-Oct-27 11:30N 45°41' W 148°12'0 0.0 995.0 12.3
2014-Oct-27 10:30N 45°41' W 148°12'2 0.6 994.7 12.3
2014-Oct-27 07:30N 45°43' W 148°13'1 0.7 993.8 12.3
2014-Oct-27 05:30N 45°43' W 148°15'1 1.4 993.2 12.3
2014-Oct-27 04:30N 45°42' W 148°16'2 1.2 993.3 12.2
2014-Oct-27 02:30N 45°42' W 148°19'0 0.0 993.0 12.2
2014-Oct-27 01:30N 45°42' W 148°19'1 0.8 993.1 12.2
2014-Oct-27 00:30N 45°41' W 148°20'1 0.9 993.3 12.2
2014-Oct-26 23:30N 45°40' W 148°20'1 1.0 993.3 12.1
2014-Oct-26 22:30N 45°40' W 148°19'1 0.6 993.1 12.1
2014-Oct-26 20:30N 45°41' W 148°18'0 0.3 994.1 12.1
2014-Oct-26 19:30N 45°41' W 148°18'1 0.4 994.8 12.1
2014-Oct-26 17:30N 45°41' W 148°19'1 0.5 996.5 12.1
2014-Oct-26 15:30N 45°42' W 148°20'1 0.9 998.9 12.0
2014-Oct-26 14:30N 45°42' W 148°21'3 1.6 999.8 12.0
2014-Oct-26 12:30N 45°40' W 148°25'1 0.5 1002.0 12.0
2014-Oct-26 10:30N 45°40' W 148°24'3 1.0 1005.0 12.1
2014-Oct-26 07:30N 45°37' W 148°26'1 0.9 1009.8 12.1
2014-Oct-26 06:30N 45°37' W 148°26'1 0.5 1011.1 12.2
2014-Oct-26 05:30N 45°36' W 148°26'0 0.0 1012.0 12.2
2014-Oct-26 04:30N 45°36' W 148°26'1 0.8 1012.9 12.2
2014-Oct-26 03:30N 45°37' W 148°25'0 0.5 1013.5 12.2
2014-Oct-26 02:30N 45°37' W 148°25'0 0.0 1014.2 12.2
2014-Oct-26 01:30N 45°37' W 148°25'1 0.8 1015.0 12.2
2014-Oct-26 00:30N 45°37' W 148°26'1 0.3 1015.9 12.2
2014-Oct-25 20:30N 45°37' W 148°28'1 1.4 1019.0 12.2
2014-Oct-25 19:30N 45°37' W 148°30'1 0.1 1019.5 12.1
2014-Oct-25 14:30N 45°36' W 148°30'0 0.1 1020.5 12.1
2014-Oct-25 13:30N 45°36' W 148°29'0 0.0 1020.7 12.1
2014-Oct-25 12:30N 45°36' W 148°29'0 0.3 1021.0 12.1
2014-Oct-25 11:30N 45°37' W 148°30'3 0.6 1021.5 12.1
2014-Oct-25 05:30N 45°40' W 148°32'1 1.1 1023.6 12.1
2014-Oct-25 04:30N 45°40' W 148°33'1 0.7 1023.7 12.1
2014-Oct-25 02:30N 45°41' W 148°35'0 0.0 1023.3 12.1
2014-Oct-25 01:30N 45°41' W 148°35'1 0.8 1023.5 12.1
2014-Oct-25 00:30N 45°40' W 148°36'0 0.0 1023.4 12.1
2014-Oct-24 23:30N 45°40' W 148°36'1 0.9 1023.3 12.1
2014-Oct-24 22:30N 45°40' W 148°37'0 0.0 1023.7 12.1
2014-Oct-24 21:30N 45°40' W 148°37'2 0.5 1024.0 12.1
2014-Oct-24 17:30N 45°41' W 148°34'1 0.8 1023.2 12.0
2014-Oct-24 16:30N 45°42' W 148°34'1 0.7 1023.0 12.0
2014-Oct-24 15:30N 45°43' W 148°34'1 1.2 1022.7 12.0
2014-Oct-24 14:30N 45°44' W 148°35'1 1.3 1022.4 12.0
2014-Oct-24 13:30N 45°44' W 148°36'4 2.2 1022.1 12.0
2014-Oct-24 11:30N 45°45' W 148°43'0 0.0 1021.6 12.1
2014-Oct-24 06:30N 45°45' W 148°42'0 0.1 1019.4 12.2
2014-Oct-24 05:30N 45°45' W 148°43'2 1.6 1018.5 12.3
2014-Oct-24 04:30N 45°46' W 148°41'1 0.6 1017.7 12.3
2014-Oct-24 02:30N 45°48' W 148°41'0 0.0 1015.1 12.4
2014-Oct-24 01:30N 45°48' W 148°41'1 0.6 1014.1 12.4
2014-Oct-23 23:30N 45°49' W 148°41'2 2.1 1012.3 12.4
2014-Oct-23 22:30N 45°51' W 148°42'4 1.9 1011.9 12.4
2014-Oct-23 20:30N 45°54' W 148°44'2 0.3 1010.9 12.4
2014-Oct-23 15:30N 45°54' W 148°47'1 1.3 1008.5 12.3
2014-Oct-23 14:30N 45°55' W 148°48'1 0.8 1008.1 12.3
2014-Oct-23 13:30N 45°54' W 148°48'1 0.6 1007.2 12.3
2014-Oct-23 11:30N 45°56' W 148°48'0 0.0 1006.0 12.3
2014-Oct-23 07:30N 45°56' W 148°48'2 1.6 1004.4 12.3
2014-Oct-23 06:30N 45°57' W 148°50'0 0.4 1003.9 12.3
2014-Oct-23 05:30N 45°56' W 148°50'1 0.6 1003.7 12.3
2014-Oct-23 03:30N 45°57' W 148°51'3 1.7 1003.4 12.3
2014-Oct-23 01:30N 45°60' W 148°54'2 0.8 1003.4 12.3
2014-Oct-22 23:30N 45°59' W 148°56'2 0.4 1003.6 12.3
2014-Oct-22 17:30N 46°01' W 148°58'1 0.4 1003.0 12.2
2014-Oct-22 15:30N 46°01' W 148°59'2 0.9 1002.2 12.2
2014-Oct-22 13:30N 46°03' W 149°00'3 1.6 1001.9 12.2
2014-Oct-22 11:30N 46°05' W 149°03'0 0.1 1001.7 12.2
2014-Oct-22 07:30N 46°05' W 149°03'3 0.9 1001.4 12.3
2014-Oct-22 03:30N 46°05' W 149°08'1 1.1 1000.9 12.3
2014-Oct-22 02:30N 46°05' W 149°09'0 0.0 1001.1 12.4
2014-Oct-22 01:30N 46°05' W 149°09'1 0.9 1000.7 12.4
2014-Oct-22 00:30N 46°05' W 149°08'3 0.6 1000.4 12.4
2014-Oct-21 19:30N 46°08' W 149°09'   998.4 12.4
Track history (hours):
 
Tides and Currents Weather Stations Pressure Air Temp Water Temp Dewpoint Dewpoint Depression Visibility Wind Speed Wind Dir Waves Ship Positions

Drifting buoy 46928

Last reported at 2014-Oct-31 15:30 UTC. Time now 2014-Oct-31 17:09 UTC.
Position N 45°23' W 147°41'.

Barometer 1017.1 mb
Water temperature 12.8 ° C

Date/timePositionNaut miles runAvg speedWind from/ knotsBaromVisibWave heightAir tempDewpointWater temp
2014-Oct-31 15:30N 45°23' W 147°41'1 0.7 1017.1 12.8
2014-Oct-31 13:30N 45°23' W 147°43'1 0.5 1016.7 12.7
2014-Oct-31 11:30N 45°24' W 147°44'2 0.5 1016.7 12.7
2014-Oct-31 07:30N 45°23' W 147°47'1 0.6 1017.5 12.7
2014-Oct-31 05:30N 45°22' W 147°47'1 1.1 1017.0 12.6
2014-Oct-31 04:30N 45°20' W 147°47'1 0.7 1016.6 12.6
2014-Oct-31 03:30N 45°21' W 147°47'0 0.0 1016.3 12.6
2014-Oct-31 02:30N 45°21' W 147°47'1 1.3 1015.5 12.6
2014-Oct-31 01:30N 45°21' W 147°46'1 0.8 1015.5 12.6
2014-Oct-31 00:30N 45°20' W 147°47'0 0.3 1015.3 12.6
2014-Oct-30 23:30N 45°20' W 147°47'3 1.1 1015.5 12.6
2014-Oct-30 20:30N 45°23' W 147°49'2 1.7 1016.0 12.7
2014-Oct-30 19:30N 45°25' W 147°51'0 0.0 1016.0 12.7
2014-Oct-30 17:30N 45°25' W 147°51'1 0.4 1014.6 12.8
2014-Oct-30 14:30N 45°23' W 147°51'1 1.2 1013.1 12.9
2014-Oct-30 13:30N 45°24' W 147°52'3 0.8 1012.8 12.9
2014-Oct-30 10:30N 45°25' W 147°49'3 1.0 1012.3 13.0
2014-Oct-30 07:30N 45°27' W 147°51'1 0.3 1011.3 12.9
2014-Oct-30 05:30N 45°28' W 147°51'0 0.2 1010.0 12.6
2014-Oct-30 04:30N 45°28' W 147°52'2 2.2 1009.8 12.6
2014-Oct-30 03:30N 45°30' W 147°53'1 0.4 1009.2 12.5
2014-Oct-30 00:30N 45°31' W 147°54'0 0.2 1008.0 12.5
2014-Oct-29 23:30N 45°31' W 147°54'1 0.4 1007.9 12.5
2014-Oct-29 21:30N 45°31' W 147°54'1 0.4 1009.3 12.4
2014-Oct-29 19:30N 45°31' W 147°55'2 0.9 1010.0 12.5
2014-Oct-29 17:30N 45°31' W 147°57'0 0.4 1009.6 12.5
2014-Oct-29 16:30N 45°31' W 147°57'1 0.5 1009.0 12.5
2014-Oct-29 14:30N 45°32' W 147°56'5 1.8 1009.0 12.5
2014-Oct-29 11:30N 45°34' W 148°03'0 0.0 1009.5 12.5
2014-Oct-29 08:30N 45°34' W 148°03'1 0.3 1010.1 12.6
2014-Oct-29 05:30N 45°35' W 148°04'2 0.7 1011.3 12.6
2014-Oct-29 02:30N 45°32' W 148°05'1 0.6 1011.7 12.6
2014-Oct-29 01:30N 45°33' W 148°04'1 0.7 1011.6 12.5
2014-Oct-29 00:30N 45°32' W 148°05'0 0.2 1011.8 12.5
2014-Oct-28 22:30N 45°32' W 148°04'0 0.3 1012.7 12.5
2014-Oct-28 21:30N 45°32' W 148°05'2 1.7 1013.3 12.4
2014-Oct-28 20:30N 45°33' W 148°03'4 2.2 1013.6 12.4
2014-Oct-28 18:30N 45°36' W 148°07'0 0.1 1013.3 12.3
2014-Oct-28 16:30N 45°36' W 148°08'2 1.0 1012.7 12.3
2014-Oct-28 14:30N 45°36' W 148°10'1 0.5 1012.9 12.3
2014-Oct-28 12:30N 45°36' W 148°12'1 0.4 1012.9 12.3
2014-Oct-28 10:30N 45°35' W 148°11'0 0.0 1012.8 12.3
2014-Oct-28 08:30N 45°35' W 148°11'1 0.4 1012.7 12.3
2014-Oct-28 06:30N 45°36' W 148°11'2 0.5 1012.3 12.3
2014-Oct-28 02:30N 45°38' W 148°11'1 0.6 1009.4 12.3
2014-Oct-28 01:30N 45°38' W 148°11'1 0.5 1008.8 12.3
2014-Oct-28 00:30N 45°39' W 148°11'0 0.3 1008.0 12.3
2014-Oct-27 23:30N 45°39' W 148°12'1 0.8 1007.4 12.3
2014-Oct-27 22:30N 45°40' W 148°13'1 0.1 1006.6 12.3
2014-Oct-27 16:30N 45°40' W 148°11'0 0.3 999.7 12.3
2014-Oct-27 15:30N 45°40' W 148°12'2 1.8 998.2 12.3
2014-Oct-27 14:30N 45°41' W 148°13'0 0.1 997.1 12.3
2014-Oct-27 12:30N 45°41' W 148°12'0 0.0 995.7 12.3
2014-Oct-27 11:30N 45°41' W 148°12'0 0.0 995.0 12.3
2014-Oct-27 10:30N 45°41' W 148°12'2 0.6 994.7 12.3
2014-Oct-27 07:30N 45°43' W 148°13'1 0.7 993.8 12.3
2014-Oct-27 05:30N 45°43' W 148°15'1 1.4 993.2 12.3
2014-Oct-27 04:30N 45°42' W 148°16'2 1.2 993.3 12.2
2014-Oct-27 02:30N 45°42' W 148°19'0 0.0 993.0 12.2
2014-Oct-27 01:30N 45°42' W 148°19'1 0.8 993.1 12.2
2014-Oct-27 00:30N 45°41' W 148°20'1 0.9 993.3 12.2
2014-Oct-26 23:30N 45°40' W 148°20'1 1.0 993.3 12.1
2014-Oct-26 22:30N 45°40' W 148°19'1 0.6 993.1 12.1
2014-Oct-26 20:30N 45°41' W 148°18'0 0.3 994.1 12.1
2014-Oct-26 19:30N 45°41' W 148°18'1 0.4 994.8 12.1
2014-Oct-26 17:30N 45°41' W 148°19'1 0.5 996.5 12.1
2014-Oct-26 15:30N 45°42' W 148°20'1 0.9 998.9 12.0
2014-Oct-26 14:30N 45°42' W 148°21'3 1.6 999.8 12.0
2014-Oct-26 12:30N 45°40' W 148°25'1 0.5 1002.0 12.0
2014-Oct-26 10:30N 45°40' W 148°24'3 1.0 1005.0 12.1
2014-Oct-26 07:30N 45°37' W 148°26'1 0.9 1009.8 12.1
2014-Oct-26 06:30N 45°37' W 148°26'1 0.5 1011.1 12.2
2014-Oct-26 05:30N 45°36' W 148°26'0 0.0 1012.0 12.2
2014-Oct-26 04:30N 45°36' W 148°26'1 0.8 1012.9 12.2
2014-Oct-26 03:30N 45°37' W 148°25'0 0.5 1013.5 12.2
2014-Oct-26 02:30N 45°37' W 148°25'0 0.0 1014.2 12.2
2014-Oct-26 01:30N 45°37' W 148°25'1 0.8 1015.0 12.2
2014-Oct-26 00:30N 45°37' W 148°26'1 0.3 1015.9 12.2
2014-Oct-25 20:30N 45°37' W 148°28'1 1.4 1019.0 12.2
2014-Oct-25 19:30N 45°37' W 148°30'1 0.1 1019.5 12.1
2014-Oct-25 14:30N 45°36' W 148°30'0 0.1 1020.5 12.1
2014-Oct-25 13:30N 45°36' W 148°29'0 0.0 1020.7 12.1
2014-Oct-25 12:30N 45°36' W 148°29'0 0.3 1021.0 12.1
2014-Oct-25 11:30N 45°37' W 148°30'3 0.6 1021.5 12.1
2014-Oct-25 05:30N 45°40' W 148°32'1 1.1 1023.6 12.1
2014-Oct-25 04:30N 45°40' W 148°33'1 0.7 1023.7 12.1
2014-Oct-25 02:30N 45°41' W 148°35'0 0.0 1023.3 12.1
2014-Oct-25 01:30N 45°41' W 148°35'1 0.8 1023.5 12.1
2014-Oct-25 00:30N 45°40' W 148°36'0 0.0 1023.4 12.1
2014-Oct-24 23:30N 45°40' W 148°36'1 0.9 1023.3 12.1
2014-Oct-24 22:30N 45°40' W 148°37'0 0.0 1023.7 12.1
2014-Oct-24 21:30N 45°40' W 148°37'2 0.5 1024.0 12.1
2014-Oct-24 17:30N 45°41' W 148°34'1 0.8 1023.2 12.0
2014-Oct-24 16:30N 45°42' W 148°34'1 0.7 1023.0 12.0
2014-Oct-24 15:30N 45°43' W 148°34'1 1.2 1022.7 12.0
2014-Oct-24 14:30N 45°44' W 148°35'1 1.3 1022.4 12.0
2014-Oct-24 13:30N 45°44' W 148°36'4 2.2 1022.1 12.0
2014-Oct-24 11:30N 45°45' W 148°43'0 0.0 1021.6 12.1
2014-Oct-24 06:30N 45°45' W 148°42'0 0.1 1019.4 12.2
2014-Oct-24 05:30N 45°45' W 148°43'2 1.6 1018.5 12.3
2014-Oct-24 04:30N 45°46' W 148°41'1 0.6 1017.7 12.3
2014-Oct-24 02:30N 45°48' W 148°41'0 0.0 1015.1 12.4
2014-Oct-24 01:30N 45°48' W 148°41'1 0.6 1014.1 12.4
2014-Oct-23 23:30N 45°49' W 148°41'2 2.1 1012.3 12.4
2014-Oct-23 22:30N 45°51' W 148°42'4 1.9 1011.9 12.4
2014-Oct-23 20:30N 45°54' W 148°44'2 0.3 1010.9 12.4
2014-Oct-23 15:30N 45°54' W 148°47'1 1.3 1008.5 12.3
2014-Oct-23 14:30N 45°55' W 148°48'1 0.8 1008.1 12.3
2014-Oct-23 13:30N 45°54' W 148°48'1 0.6 1007.2 12.3
2014-Oct-23 11:30N 45°56' W 148°48'0 0.0 1006.0 12.3
2014-Oct-23 07:30N 45°56' W 148°48'2 1.6 1004.4 12.3
2014-Oct-23 06:30N 45°57' W 148°50'0 0.4 1003.9 12.3
2014-Oct-23 05:30N 45°56' W 148°50'1 0.6 1003.7 12.3
2014-Oct-23 03:30N 45°57' W 148°51'3 1.7 1003.4 12.3
2014-Oct-23 01:30N 45°60' W 148°54'2 0.8 1003.4 12.3
2014-Oct-22 23:30N 45°59' W 148°56'2 0.4 1003.6 12.3
2014-Oct-22 17:30N 46°01' W 148°58'1 0.4 1003.0 12.2
2014-Oct-22 15:30N 46°01' W 148°59'2 0.9 1002.2 12.2
2014-Oct-22 13:30N 46°03' W 149°00'3 1.6 1001.9 12.2
2014-Oct-22 11:30N 46°05' W 149°03'0 0.1 1001.7 12.2
2014-Oct-22 07:30N 46°05' W 149°03'3 0.9 1001.4 12.3
2014-Oct-22 03:30N 46°05' W 149°08'1 1.1 1000.9 12.3
2014-Oct-22 02:30N 46°05' W 149°09'0 0.0 1001.1 12.4
2014-Oct-22 01:30N 46°05' W 149°09'1 0.9 1000.7 12.4
2014-Oct-22 00:30N 46°05' W 149°08'3 0.6 1000.4 12.4
2014-Oct-21 19:30N 46°08' W 149°09'   998.4 12.4

Dump ship's entire track history